Time;durP1;ratioP1;P1;durP2;ratioP2;P2;SDS_P1;SDS_P2;PMS_P1;PMS_P2;Temp;Humidity;BMP_temperature;BMP_pressure;BME280_temperature;BME280_humidity;BME280_pressure;Samples;Min_cycle;Max_cycle;Signal;HPM_P1;HPM_P2
2022/09/13 00:00:25;;;;;;;7.60;5.18;;;;;;;19.82;69.54;100898.13;5015081;28;20117;-85
2022/09/13 00:02:50;;;;;;;7.75;5.05;;;;;;;19.89;68.90;100890.81;4999759;28;20536;-85
2022/09/13 00:05:16;;;;;;;9.98;5.05;;;;;;;19.99;68.28;100887.81;5017105;28;20030;-87
2022/09/13 00:07:41;;;;;;;10.15;5.10;;;;;;;20.02;68.18;100892.22;5016999;28;20149;-85
2022/09/13 00:10:07;;;;;;;9.30;5.00;;;;;;;20.05;67.92;100900.19;5017260;28;20512;-85
2022/09/13 00:12:33;;;;;;;7.57;4.90;;;;;;;20.01;68.16;100888.66;5016813;28;20034;-85
2022/09/13 00:14:58;;;;;;;13.30;5.63;;;;;;;19.96;68.50;100892.41;4999459;28;20030;-85
2022/09/13 00:17:25;;;;;;;7.03;4.90;;;;;;;19.93;68.87;100904.09;5016504;28;20118;-85
2022/09/13 00:19:50;;;;;;;9.85;5.18;;;;;;;19.79;69.51;100905.41;5016326;28;20477;-86
2022/09/13 00:22:16;;;;;;;8.02;4.97;;;;;;;19.75;69.64;100894.75;4999065;28;20053;-86
2022/09/13 00:24:41;;;;;;;8.82;5.18;;;;;;;19.74;69.25;100889.41;5016423;28;20038;-85
2022/09/13 00:27:07;;;;;;;9.30;5.05;;;;;;;19.70;69.78;100887.75;5016624;28;20500;-85
2022/09/13 00:29:32;;;;;;;10.77;5.50;;;;;;;19.68;69.22;100876.16;5016471;28;20029;-85
2022/09/13 00:31:57;;;;;;;10.68;4.82;;;;;;;19.66;69.71;100881.59;5016503;28;20072;-85
2022/09/13 00:34:23;;;;;;;8.55;5.00;;;;;;;19.72;69.85;100876.03;5016404;28;20064;-85
2022/09/13 00:36:48;;;;;;;8.88;4.97;;;;;;;19.79;69.48;100870.53;5016187;28;20069;-86
2022/09/13 00:39:13;;;;;;;6.40;4.85;;;;;;;19.81;68.83;100866.00;5016688;28;20045;-84
2022/09/13 00:41:39;;;;;;;9.93;5.22;;;;;;;19.76;69.47;100868.81;5016601;28;20113;-85
2022/09/13 00:44:24;;;;;;;10.40;5.30;;;;;;;19.67;69.53;100869.06;5016379;28;20398;-85
2022/09/13 00:46:51;;;;;;;9.10;5.22;;;;;;;19.63;69.74;100873.59;5016636;28;20034;-85
2022/09/13 00:49:34;;;;;;;9.68;5.18;;;;;;;19.58;69.73;100866.59;5016271;28;20482;-86
2022/09/13 00:52:07;;;;;;;9.40;5.50;;;;;;;19.48;69.54;100865.91;5016500;28;20061;-85
2022/09/13 00:54:40;;;;;;;7.95;5.50;;;;;;;19.51;68.70;100861.38;5016453;28;20041;-85
2022/09/13 00:57:08;;;;;;;10.07;5.45;;;;;;;19.54;68.38;100855.06;4998879;28;20480;-85
2022/09/13 00:59:41;;;;;;;15.88;5.57;;;;;;;19.62;67.83;100850.41;5016331;28;20040;-84
2022/09/13 01:02:08;;;;;;;9.65;5.75;;;;;;;19.62;68.32;100852.22;5015667;28;20386;-84
2022/09/13 01:04:35;;;;;;;9.55;5.53;;;;;;;19.52;68.69;100855.06;4998366;28;20414;-84
2022/09/13 01:07:10;;;;;;;12.57;5.47;;;;;;;19.51;68.43;100847.09;5015835;28;20084;-85
2022/09/13 01:09:40;;;;;;;10.45;5.55;;;;;;;19.51;68.07;100853.31;5015681;28;20032;-85
2022/09/13 01:12:14;;;;;;;8.30;6.00;;;;;;;19.50;67.93;100854.25;5014956;28;20448;-84
2022/09/13 01:14:41;;;;;;;11.02;5.70;;;;;;;19.53;67.63;100858.66;4998194;28;20529;-84
2022/09/13 01:17:07;;;;;;;10.70;5.95;;;;;;;19.58;67.21;100846.00;5015929;28;20036;-85
2022/09/13 01:19:32;;;;;;;11.88;5.85;;;;;;;19.64;67.10;100851.22;4998138;28;20038;-85
2022/09/13 01:22:07;;;;;;;8.57;5.80;;;;;;;19.64;67.21;100850.34;5015339;28;20080;-85
2022/09/13 01:24:54;;;;;;;8.43;5.88;;;;;;;19.66;66.85;100854.78;5015848;28;20117;-85
2022/09/13 01:27:38;;;;;;;11.63;6.10;;;;;;;19.69;66.46;100851.97;5015368;28;20084;-86
2022/09/13 01:30:22;;;;;;;8.95;6.10;;;;;;;19.73;67.09;100852.78;4997875;28;20048;-85
2022/09/13 01:33:08;;;;;;;10.65;5.43;;;;;;;19.79;66.45;100854.44;5015938;28;20038;-85
2022/09/13 01:35:43;;;;;;;10.02;6.13;;;;;;;19.75;67.05;100853.63;5015439;28;20119;-85
2022/09/13 01:38:20;;;;;;;7.97;5.80;;;;;;;19.76;67.03;100855.41;5015320;28;20065;-84
2022/09/13 01:41:05;;;;;;;10.50;6.10;;;;;;;19.84;67.28;100848.03;5015224;28;20040;-86
2022/09/13 01:43:52;;;;;;;8.13;5.47;;;;;;;19.92;66.58;100845.13;5014972;28;20163;-85
2022/09/13 01:46:53;;;;;;;8.20;6.30;;;;;;;19.88;67.07;100846.16;5015106;28;20168;-86
2022/09/13 01:49:34;;;;;;;10.63;5.78;;;;;;;19.89;67.85;100846.09;5014830;28;20037;-86
2022/09/13 01:52:30;;;;;;;9.25;5.50;;;;;;;19.96;67.58;100847.69;5015687;28;20042;-85
2022/09/13 01:54:58;;;;;;;9.65;5.28;;;;;;;19.90;67.83;100846.97;5015543;28;20451;-85
2022/09/13 01:57:36;;;;;;;8.45;5.55;;;;;;;19.88;68.08;100846.16;5015012;28;20036;-85
2022/09/13 02:00:12;;;;;;;9.13;5.78;;;;;;;19.88;67.35;100835.41;5014923;28;20033;-85
2022/09/13 02:02:44;;;;;;;10.15;5.75;;;;;;;19.90;67.23;100836.25;5015183;28;20072;-85
2022/09/13 02:05:20;;;;;;;8.80;5.68;;;;;;;19.94;67.21;100833.41;5015336;28;20413;-85
2022/09/13 02:07:52;;;;;;;13.10;5.88;;;;;;;19.90;67.36;100831.75;4997753;28;20092;-85
2022/09/13 02:10:23;;;;;;;;;;;;;;;20.08;66.39;100843.75;4998705;28;20026;-86
2022/09/13 02:12:51;;;;;;;9.93;5.70;;;;;;;19.96;67.58;100836.97;5015242;28;19913;-85
2022/09/13 02:15:45;;;;;;;11.38;5.88;;;;;;;19.89;67.32;100834.50;5014906;28;20025;-85
2022/09/13 02:18:34;;;;;;;8.80;5.72;;;;;;;19.83;67.95;100837.31;5008111;28;20120;-86
2022/09/13 02:21:11;;;;;;;13.60;6.00;;;;;;;19.70;68.26;100835.00;5014812;28;20060;-86
2022/09/13 02:23:52;;;;;;;10.48;5.88;;;;;;;19.72;67.91;100841.19;5014263;28;20116;-86
2022/09/13 02:26:21;;;;;;;9.88;6.07;;;;;;;19.64;68.84;100845.00;5014112;28;20030;-86
2022/09/13 02:28:54;;;;;;;11.27;5.97;;;;;;;19.64;68.48;100850.34;4997228;28;20034;-86
2022/09/13 02:31:33;;;;;;;8.43;5.47;;;;;;;19.58;68.99;100845.13;5014351;28;20513;-86
2022/09/13 02:34:14;;;;;;;7.53;5.63;;;;;;;19.62;68.92;100847.72;5014436;28;20037;-84
2022/09/13 02:36:43;;;;;;;12.05;5.60;;;;;;;19.70;68.93;100844.84;5014412;28;20136;-86
2022/09/13 02:39:15;;;;;;;7.72;5.55;;;;;;;19.69;69.06;100846.63;5014452;28;20025;-85
2022/09/13 02:41:59;;;;;;;8.57;5.50;;;;;;;19.73;69.10;100850.09;5013949;28;20033;-85
2022/09/13 02:44:39;;;;;;;9.48;5.32;;;;;;;19.63;69.67;100851.28;5014111;28;20088;-85
2022/09/13 02:47:40;;;;;;;11.50;5.45;;;;;;;19.62;69.47;100858.44;5014484;28;20037;-85
2022/09/13 02:50:24;;;;;;;7.57;5.50;;;;;;;19.61;69.32;100859.34;4973029;28;20088;-85
2022/09/13 02:53:01;;;;;;;8.90;5.45;;;;;;;19.46;70.96;100857.06;5014341;28;20105;-87
2022/09/13 02:55:35;;;;;;;7.28;5.50;;;;;;;19.36;70.73;100860.91;5014403;28;20117;-85
2022/09/13 02:58:24;;;;;;;8.70;5.63;;;;;;;19.31;70.54;100870.81;5014017;28;20104;-85
2022/09/13 03:00:50;;;;;;;10.07;5.70;;;;;;;19.22;70.81;100858.53;5014298;28;20480;-85
2022/09/13 03:03:16;;;;;;;7.72;5.43;;;;;;;19.18;70.85;100868.44;5013947;28;20034;-85
2022/09/13 03:05:42;;;;;;;10.05;5.43;;;;;;;19.12;71.09;100860.56;5013832;28;20026;-85
2022/09/13 03:08:10;;;;;;;11.68;5.53;;;;;;;19.10;70.71;100867.78;5013876;28;20478;-85
2022/09/13 03:10:44;;;;;;;10.52;5.68;;;;;;;19.18;70.22;100864.88;5013866;28;20076;-86
2022/09/13 03:13:44;;;;;;;9.18;5.50;;;;;;;19.20;70.03;100866.63;5015024;28;20030;-85
2022/09/13 03:16:31;;;;;;;8.77;5.35;;;;;;;19.22;69.35;100871.94;5013901;28;20040;-85
2022/09/13 03:19:16;;;;;;;7.35;5.00;;;;;;;19.27;69.31;100860.19;5014373;28;20054;-85
2022/09/13 03:22:01;;;;;;;7.72;5.50;;;;;;;19.31;68.99;100865.47;5013892;28;20065;-85
2022/09/13 03:24:40;;;;;;;8.02;4.80;;;;;;;19.35;68.75;100857.31;5013738;28;20061;-85
2022/09/13 03:27:45;;;;;;;9.20;5.25;;;;;;;19.36;69.00;100847.50;5014064;28;20029;-85
2022/09/13 03:30:13;;;;;;;7.57;5.22;;;;;;;19.23;69.13;100847.81;5013787;28;20029;-85
2022/09/13 03:32:48;;;;;;;9.10;5.40;;;;;;;19.14;69.90;100847.13;5013665;28;20030;-86
2022/09/13 03:35:39;;;;;;;7.72;4.85;;;;;;;19.17;69.27;100845.25;4996775;28;20500;-86
2022/09/13 03:38:15;;;;;;;9.50;5.30;;;;;;;19.20;69.54;100855.91;5017669;28;20470;-86
2022/09/13 03:41:06;;;;;;;9.85;5.45;;;;;;;19.28;69.42;100850.38;5018343;28;20025;-86
2022/09/13 03:43:39;;;;;;;7.15;5.18;;;;;;;19.26;69.29;100845.03;5017542;28;20133;-87
2022/09/13 03:46:14;;;;;;;;;;;;;;;19.41;68.22;100842.91;5018126;28;20026;-87
2022/09/13 03:48:41;;;;;;;8.90;5.25;;;;;;;19.28;69.20;100845.00;5017196;28;19939;-86
2022/09/13 03:51:09;;;;;;;7.68;5.35;;;;;;;19.27;69.05;100844.13;4984429;28;20045;-86
2022/09/13 03:53:45;;;;;;;6.32;4.97;;;;;;;19.33;68.64;100837.72;5017320;28;20087;-86
2022/09/13 03:56:19;;;;;;;9.80;5.68;;;;;;;19.30;68.46;100840.47;5017015;28;20033;-86
2022/09/13 03:58:48;;;;;;;11.65;5.32;;;;;;;19.38;68.28;100842.97;5016876;28;20029;-86
2022/09/13 04:01:18;;;;;;;6.35;5.10;;;;;;;19.40;68.47;100843.78;4999794;28;20037;-85
2022/09/13 04:03:44;;;;;;;9.02;5.70;;;;;;;19.36;68.59;100850.19;5017676;28;20022;-86
2022/09/13 04:06:09;;;;;;;9.80;5.57;;;;;;;19.34;68.31;100850.19;5017454;28;20052;-85
2022/09/13 04:08:34;;;;;;;7.20;5.28;;;;;;;19.34;68.44;100850.19;5016952;28;20033;-86
2022/09/13 04:11:00;;;;;;;14.30;5.65;;;;;;;19.38;68.33;100859.91;5016942;28;20030;-86
2022/09/13 04:13:25;;;;;;;9.88;5.80;;;;;;;19.36;68.65;100860.91;4983680;28;20168;-86
2022/09/13 04:15:51;;;;;;;8.93;5.72;;;;;;;19.27;68.88;100856.63;4999229;28;20489;-86
2022/09/13 04:18:16;;;;;;;9.65;5.28;;;;;;;19.32;68.73;100867.25;5016591;28;20042;-86
2022/09/13 04:20:42;;;;;;;7.85;5.75;;;;;;;19.33;68.41;100871.69;4998942;28;20439;-85
2022/09/13 04:23:08;;;;;;;9.85;5.82;;;;;;;19.34;68.79;100868.94;5016920;28;20053;-85
2022/09/13 04:25:39;;;;;;;10.90;5.85;;;;;;;19.30;69.03;100866.38;4983568;28;20044;-85
2022/09/13 04:28:05;;;;;;;11.15;5.70;;;;;;;19.31;68.32;100865.47;5017279;28;20030;-85
2022/09/13 04:30:31;;;;;;;8.68;6.38;;;;;;;19.32;68.36;100877.97;5016277;28;20041;-86
2022/09/13 04:32:57;;;;;;;10.63;6.10;;;;;;;19.31;68.48;100876.19;5016567;28;20026;-86
2022/09/13 04:35:22;;;;;;;8.73;6.05;;;;;;;19.33;68.85;100875.25;5016446;28;20038;-86
2022/09/13 04:37:48;;;;;;;11.35;6.32;;;;;;;19.23;68.90;100874.59;5016152;28;20041;-86
2022/09/13 04:40:13;;;;;;;13.75;6.50;;;;;;;19.22;68.84;100875.47;4998657;28;20038;-86
2022/09/13 04:42:39;;;;;;;12.07;7.00;;;;;;;19.16;68.64;100882.81;5016934;28;20026;-85
2022/09/13 04:45:05;;;;;;;8.70;6.45;;;;;;;19.07;69.39;100881.22;5016328;28;20030;-85
2022/09/13 04:47:31;;;;;;;8.82;6.75;;;;;;;19.06;69.39;100891.97;4998227;28;20061;-86
2022/09/13 04:49:56;;;;;;;9.65;6.80;;;;;;;19.01;69.50;100887.63;4998775;28;20034;-85
2022/09/13 04:52:22;;;;;;;17.05;7.03;;;;;;;19.07;69.23;100883.91;5016359;28;20041;-86
2022/09/13 04:54:48;;;;;;;8.15;6.43;;;;;;;19.17;68.64;100884.56;5015720;28;20444;-86
2022/09/13 04:57:15;;;;;;;11.00;6.80;;;;;;;19.13;69.19;100888.22;5016020;28;20558;-85
2022/09/13 04:59:41;;;;;;;10.77;6.75;;;;;;;19.04;69.30;100881.28;5016059;28;20052;-86
2022/09/13 05:02:09;;;;;;;10.95;6.60;;;;;;;19.04;69.41;100886.66;5015953;28;20041;-87
2022/09/13 05:04:35;;;;;;;11.95;6.70;;;;;;;19.00;69.53;100888.50;4999546;28;20046;-85
2022/09/13 05:07:00;;;;;;;9.68;6.60;;;;;;;19.01;69.72;100887.63;4998581;28;20085;-84
2022/09/13 05:09:26;;;;;;;14.10;6.88;;;;;;;18.99;69.60;100889.44;5015907;28;20121;-85
2022/09/13 05:11:51;;;;;;;9.48;6.55;;;;;;;18.97;69.49;100883.25;5016019;28;20026;-84
2022/09/13 05:14:16;;;;;;;10.77;6.72;;;;;;;19.06;69.40;100884.84;5015700;28;20038;-84
2022/09/13 05:16:42;;;;;;;9.68;6.90;;;;;;;19.13;69.18;100885.56;5015466;28;20038;-84
2022/09/13 05:19:09;;;;;;;18.20;7.00;;;;;;;19.11;68.83;100887.41;5016248;28;20424;-84
2022/09/13 05:21:34;;;;;;;10.63;6.82;;;;;;;19.12;69.29;100878.44;5015638;28;20052;-85
2022/09/13 05:24:00;;;;;;;10.30;6.72;;;;;;;19.15;69.09;100889.09;5016894;28;20030;-84
2022/09/13 05:26:31;;;;;;;10.85;6.97;;;;;;;19.21;69.11;100880.91;4998305;28;20033;-84
2022/09/13 05:28:58;;;;;;;12.25;6.97;;;;;;;19.20;69.24;100884.50;4998664;28;20026;-84
2022/09/13 05:31:36;;;;;;;12.07;6.90;;;;;;;19.14;69.86;100890.91;5016203;28;20032;-84
2022/09/13 05:34:07;;;;;;;11.05;7.15;;;;;;;19.10;70.14;100894.56;5015615;28;20048;-80
2022/09/13 05:36:33;;;;;;;9.98;7.10;;;;;;;19.18;69.68;100889.00;5015510;28;20033;-84
2022/09/13 05:38:59;;;;;;;11.07;7.57;;;;;;;19.22;69.18;100904.06;5015329;28;20038;-84
2022/09/13 05:41:25;;;;;;;13.27;7.15;;;;;;;19.27;69.22;100905.75;4997996;28;20065;-84
2022/09/13 05:43:50;;;;;;;11.27;7.15;;;;;;;19.30;69.09;100899.41;5014894;28;20073;-84
2022/09/13 05:46:20;;;;;;;10.75;7.63;;;;;;;19.31;69.09;100902.97;5015587;28;20036;-84
2022/09/13 05:48:50;;;;;;;11.18;7.68;;;;;;;19.32;69.13;100907.44;5015697;28;20034;-87
2022/09/13 05:51:20;;;;;;;11.65;7.43;;;;;;;19.39;69.39;100904.53;5015856;28;20025;-84
2022/09/13 05:53:48;;;;;;;10.32;8.05;;;;;;;19.38;69.70;100893.88;5015099;28;20030;-84
2022/09/13 05:56:18;;;;;;;12.82;8.10;;;;;;;19.39;69.08;100895.63;5015285;28;20034;-84
2022/09/13 05:58:47;;;;;;;14.90;8.20;;;;;;;19.37;69.92;100897.47;5014884;28;20034;-84
2022/09/13 06:01:14;;;;;;;11.98;7.72;;;;;;;19.35;70.22;100899.31;5014808;28;20033;-84
2022/09/13 06:03:40;;;;;;;17.67;9.13;;;;;;;19.31;69.79;100900.28;5014489;28;20053;-84
2022/09/13 06:06:10;;;;;;;11.40;8.63;;;;;;;19.33;70.19;100904.72;5014564;28;20030;-84
2022/09/13 06:08:35;;;;;;;14.02;8.55;;;;;;;19.25;70.60;100890.63;4997120;28;20025;-84
2022/09/13 06:11:04;;;;;;;14.52;8.30;;;;;;;19.26;71.06;100900.41;5014760;28;20030;-84
2022/09/13 06:13:30;;;;;;;13.95;8.77;;;;;;;19.21;70.54;100894.28;5014680;28;20026;-84
2022/09/13 06:15:58;;;;;;;12.05;8.90;;;;;;;19.20;70.74;100893.41;5014624;28;20391;-85
2022/09/13 06:18:24;;;;;;;16.13;9.55;;;;;;;19.24;70.22;100895.09;4997339;28;20427;-85
2022/09/13 06:20:50;;;;;;;13.27;8.88;;;;;;;19.28;69.98;100893.22;4997099;28;20466;-84
2022/09/13 06:23:16;;;;;;;12.70;9.35;;;;;;;19.38;70.41;100896.56;5014833;28;20104;-85
2022/09/13 06:25:42;;;;;;;13.52;9.27;;;;;;;19.43;69.97;100895.50;5014426;28;20033;-84
2022/09/13 06:28:08;;;;;;;14.88;9.77;;;;;;;19.50;69.57;100893.56;5014482;28;20029;-85
2022/09/13 06:30:34;;;;;;;13.75;9.55;;;;;;;19.57;69.27;100891.59;5014638;28;20033;-84
2022/09/13 06:32:59;;;;;;;15.70;9.75;;;;;;;19.60;69.31;100889.72;5014110;28;20068;-84
2022/09/13 06:35:25;;;;;;;14.75;10.55;;;;;;;19.60;69.87;100886.16;4980693;28;20065;-85
2022/09/13 06:37:55;;;;;;;15.88;10.40;;;;;;;19.63;70.16;100895.06;5014005;28;20125;-84
2022/09/13 06:40:21;;;;;;;14.10;10.75;;;;;;;19.65;69.41;100887.84;4996866;28;20037;-85
2022/09/13 06:42:47;;;;;;;16.33;11.27;;;;;;;19.68;69.52;100886.88;4980877;28;20116;-85
2022/09/13 06:45:12;;;;;;;17.25;11.30;;;;;;;19.77;69.57;100887.53;4996405;28;20521;-84
2022/09/13 06:47:38;;;;;;;18.65;11.38;;;;;;;19.80;69.56;100886.56;5014750;28;20038;-84
2022/09/13 06:50:03;;;;;;;20.05;11.55;;;;;;;19.84;69.44;100885.56;4996271;28;20449;-84
2022/09/13 06:52:29;;;;;;;14.55;11.50;;;;;;;19.89;69.71;100888.13;4996471;28;20030;-84
2022/09/13 06:54:54;;;;;;;14.95;11.68;;;;;;;19.94;69.28;100887.06;5013626;28;20410;-84
2022/09/13 06:57:20;;;;;;;14.10;11.30;;;;;;;19.98;69.36;100886.06;5014288;28;20037;-84
2022/09/13 06:59:45;;;;;;;14.85;11.38;;;;;;;20.13;69.20;100891.94;4996485;28;20432;-84
2022/09/13 07:02:14;;;;;;;17.27;11.88;;;;;;;20.23;68.90;100888.94;5013937;28;20037;-84
2022/09/13 07:04:40;;;;;;;21.45;12.23;;;;;;;20.44;69.05;100886.56;4996376;28;20042;-85
2022/09/13 07:07:05;;;;;;;15.77;12.32;;;;;;;20.60;68.36;100892.38;4997091;28;20038;-85
2022/09/13 07:09:33;;;;;;;16.27;12.38;;;;;;;20.81;67.49;100888.16;5013441;28;20080;-85
2022/09/13 07:11:58;;;;;;;18.77;12.63;;;;;;;20.94;67.44;100890.44;5013926;28;20091;-84
2022/09/13 07:14:26;;;;;;;15.27;12.90;;;;;;;21.15;66.54;100898.72;5014185;28;20454;-84
2022/09/13 07:16:53;;;;;;;14.25;11.57;;;;;;;21.32;65.70;100888.34;5014417;28;20465;-84
2022/09/13 07:19:27;;;;;;;15.77;11.93;;;;;;;21.52;65.32;100893.06;4996340;28;20041;-85
2022/09/13 07:21:54;;;;;;;18.92;12.77;;;;;;;21.68;64.64;100896.13;5013437;28;20050;-85
2022/09/13 07:24:20;;;;;;;17.27;12.98;;;;;;;21.78;65.17;100897.53;4996494;28;20030;-85
2022/09/13 07:26:46;;;;;;;21.40;12.95;;;;;;;22.07;64.16;100901.91;4996170;28;20030;-85
2022/09/13 07:29:15;;;;;;;18.75;12.77;;;;;;;22.32;62.84;100898.34;5013460;28;20041;-84
2022/09/13 07:31:43;;;;;;;28.75;13.48;;;;;;;22.43;62.54;100896.13;5013735;28;20057;-84
2022/09/13 07:34:14;;;;;;;15.73;12.88;;;;;;;22.63;62.02;100895.38;5013775;28;20112;-85
2022/09/13 07:36:40;;;;;;;22.03;13.83;;;;;;;22.79;61.44;100906.44;5013466;28;20038;-85
2022/09/13 07:39:06;;;;;;;17.55;13.27;;;;;;;22.89;61.43;100910.53;4996021;28;20120;-85
2022/09/13 07:41:33;;;;;;;23.42;14.48;;;;;;;22.93;61.47;100905.00;5013871;28;20072;-85
2022/09/13 07:44:00;;;;;;;17.98;13.57;;;;;;;23.11;61.97;100913.28;4995978;28;20030;-85
2022/09/13 07:46:28;;;;;;;17.95;14.88;;;;;;;23.46;60.63;100907.31;4980148;28;20037;-85
2022/09/13 07:48:55;;;;;;;23.27;14.43;;;;;;;23.74;59.59;100911.59;5013773;28;20378;-86
2022/09/13 07:51:32;;;;;;;18.48;14.63;;;;;;;23.85;59.69;100913.81;5013855;28;20442;-85
2022/09/13 07:54:00;;;;;;;21.08;15.23;;;;;;;23.92;58.87;100918.00;5013488;28;20048;-86
2022/09/13 07:56:32;;;;;;;21.90;15.65;;;;;;;24.07;58.65;100917.34;5013234;28;20088;-86
2022/09/13 07:58:59;;;;;;;21.88;16.40;;;;;;;24.09;58.21;100917.28;5013874;28;20546;-85
2022/09/13 08:01:37;;;;;;;22.63;16.27;;;;;;;24.21;58.86;100924.84;5013698;28;20415;-85
2022/09/13 08:04:05;;;;;;;20.30;15.77;;;;;;;24.23;57.98;100922.91;5013728;28;20088;-85
2022/09/13 08:06:32;;;;;;;24.98;16.42;;;;;;;24.39;57.08;100924.03;5013059;28;20032;-86
2022/09/13 08:08:57;;;;;;;24.77;16.52;;;;;;;24.57;58.02;100926.84;5013126;28;20092;-85
2022/09/13 08:11:27;;;;;;;22.63;16.30;;;;;;;24.76;57.67;100922.34;5013927;28;20026;-86
2022/09/13 08:13:53;;;;;;;22.20;15.93;;;;;;;24.87;56.42;100924.53;5013308;28;20030;-85
2022/09/13 08:16:21;;;;;;;22.55;15.57;;;;;;;25.03;56.30;100919.25;5013311;28;20489;-85
2022/09/13 08:18:52;;;;;;;22.77;16.52;;;;;;;25.16;55.43;100925.88;4995688;28;20470;-86
2022/09/13 08:21:20;;;;;;;23.17;16.40;;;;;;;25.13;55.77;100921.47;4996846;28;20100;-86
2022/09/13 08:23:46;;;;;;;22.65;16.23;;;;;;;25.33;55.90;100927.75;5016506;28;20113;-87
2022/09/13 08:26:12;;;;;;;23.45;17.08;;;;;;;25.32;54.87;100923.28;5016936;28;20099;-85
2022/09/13 08:28:39;;;;;;;22.63;16.77;;;;;;;25.35;54.45;100926.72;5016759;28;20042;-85
2022/09/13 08:31:07;;;;;;;23.25;17.02;;;;;;;25.52;55.08;100931.28;4998658;28;20065;-85
2022/09/13 08:33:33;;;;;;;23.23;17.55;;;;;;;25.51;54.78;100937.66;5016640;28;20037;-85
2022/09/13 08:36:03;;;;;;;21.77;17.55;;;;;;;25.60;55.45;100937.19;5016518;28;20034;-85
2022/09/13 08:38:29;;;;;;;22.30;16.95;;;;;;;25.68;54.42;100924.13;5016566;28;20030;-85
2022/09/13 08:41:04;;;;;;;28.38;17.05;;;;;;;25.79;54.77;100939.88;5016492;28;20138;-86
2022/09/13 08:43:51;;;;;;;24.52;17.17;;;;;;;25.92;54.77;100938.28;4997954;28;20119;-86
2022/09/13 08:46:31;;;;;;;25.65;17.67;;;;;;;25.95;55.27;100935.44;5016160;28;20030;-86
2022/09/13 08:49:05;;;;;;;24.20;17.52;;;;;;;26.01;55.53;100941.47;5016495;28;20037;-84
2022/09/13 08:51:36;;;;;;;24.42;16.83;;;;;;;26.11;54.16;100942.75;5016708;28;20076;-84
2022/09/13 08:54:05;;;;;;;26.37;17.87;;;;;;;26.16;54.16;100943.38;5016643;28;20033;-86
2022/09/13 08:56:52;;;;;;;24.23;17.10;;;;;;;26.52;53.73;100947.84;5016717;28;20030;-86
2022/09/13 08:59:50;;;;;;;19.67;15.88;;;;;;;26.78;53.37;100941.00;5016220;28;20061;-87
2022/09/13 09:02:36;;;;;;;23.48;16.33;;;;;;;26.99;52.32;100931.66;5016659;28;20369;-86
2022/09/13 09:05:13;;;;;;;21.70;16.83;;;;;;;27.16;50.59;100936.16;4996912;28;20473;-85
2022/09/13 09:07:51;;;;;;;20.40;16.13;;;;;;;27.40;51.77;100931.16;5016308;28;20057;-84
2022/09/13 09:10:39;;;;;;;22.55;16.08;;;;;;;27.59;51.37;100918.25;5016058;28;20034;-87
2022/09/13 09:13:12;;;;;;;18.83;15.98;;;;;;;27.94;49.65;100923.44;4998475;28;20045;-86
2022/09/13 09:15:52;;;;;;;25.52;14.90;;;;;;;28.26;48.53;100917.88;5016208;28;20029;-86
2022/09/13 09:18:22;;;;;;;17.55;14.23;;;;;;;28.36;47.67;100908.22;5015617;28;20033;-86
2022/09/13 09:20:55;;;;;;;22.95;16.35;;;;;;;28.36;48.58;100911.81;5015837;28;20030;-85
2022/09/13 09:23:37;;;;;;;23.25;17.13;;;;;;;28.56;48.80;100909.66;5015607;28;20051;-84
2022/09/13 09:26:28;;;;;;;22.05;17.23;;;;;;;28.37;49.78;100905.41;5015897;28;20037;-86
2022/09/13 09:29:18;;;;;;;20.50;16.10;;;;;;;28.42;49.69;100915.97;5015948;28;20497;-85
2022/09/13 09:32:20;;;;;;;20.20;14.98;;;;;;;28.63;48.46;100911.03;5015741;28;20104;-84
2022/09/13 09:35:09;;;;;;;20.37;14.23;;;;;;;28.61;48.16;100913.00;5015263;28;20030;-84
2022/09/13 09:37:36;;;;;;;21.45;14.95;;;;;;;28.23;48.36;100908.09;4998128;28;20761;-84
2022/09/13 09:40:07;;;;;;;18.52;15.20;;;;;;;28.19;49.13;100914.69;5015059;28;20434;-86
2022/09/13 09:42:44;;;;;;;21.30;14.43;;;;;;;28.40;48.91;100920.66;5015156;28;20022;-86
2022/09/13 09:45:30;;;;;;;22.30;15.00;;;;;;;28.55;48.45;100921.53;5015326;28;20034;-84
2022/09/13 09:48:01;;;;;;;21.13;14.80;;;;;;;28.43;48.27;100915.88;5015805;28;20076;-84
2022/09/13 09:50:32;;;;;;;19.00;13.75;;;;;;;28.59;48.11;100914.94;5015285;28;20030;-84
2022/09/13 09:53:19;;;;;;;19.60;14.80;;;;;;;28.67;47.97;100920.75;5015243;28;20026;-83
2022/09/13 09:55:52;;;;;;;19.50;14.60;;;;;;;28.65;46.78;100911.81;5015725;28;20076;-84
2022/09/13 09:58:36;;;;;;;20.98;14.45;;;;;;;28.66;48.90;100911.72;4998022;28;20030;-84
2022/09/13 10:01:04;;;;;;;20.90;16.60;;;;;;;28.50;48.42;100919.09;5015062;28;20034;-84
2022/09/13 10:03:32;;;;;;;22.25;16.33;;;;;;;28.84;48.78;100912.38;4981335;28;20045;-84
2022/09/13 10:06:08;;;;;;;22.08;16.13;;;;;;;29.17;48.05;100913.91;5014578;28;20037;-85
2022/09/13 10:08:36;;;;;;;21.38;16.05;;;;;;;29.17;46.62;100913.91;5014845;28;20060;-85
2022/09/13 10:11:02;;;;;;;22.65;15.43;;;;;;;29.40;47.12;100909.66;5015395;28;20417;-84
2022/09/13 10:13:29;;;;;;;20.17;14.00;;;;;;;29.48;46.35;100910.03;5015030;28;20517;-84
2022/09/13 10:16:06;;;;;;;20.77;12.93;;;;;;;29.38;47.52;100908.91;5014701;28;20033;-84
2022/09/13 10:18:35;;;;;;;20.20;12.52;;;;;;;29.19;47.18;100904.66;4997070;28;20038;-84
2022/09/13 10:21:16;;;;;;;19.30;12.52;;;;;;;29.26;47.52;100909.72;4996982;28;20034;-85
2022/09/13 10:23:42;;;;;;;16.38;11.07;;;;;;;29.18;47.67;100896.59;5015255;28;20034;-84
2022/09/13 10:26:16;;;;;;;14.02;10.25;;;;;;;29.20;47.76;100902.81;5014218;28;20057;-84
2022/09/13 10:28:51;;;;;;;14.07;9.82;;;;;;;28.94;46.87;100904.50;5014792;28;20030;-84
2022/09/13 10:31:18;;;;;;;15.90;9.40;;;;;;;28.87;47.95;100905.88;5014741;28;20033;-85
2022/09/13 10:33:44;;;;;;;16.15;10.52;;;;;;;28.84;48.14;100912.38;5014358;28;20030;-84
2022/09/13 10:36:15;;;;;;;14.25;9.88;;;;;;;28.82;47.86;100908.00;5014309;28;20045;-84
2022/09/13 10:38:53;;;;;;;16.55;10.80;;;;;;;28.51;48.66;100903.66;4996649;28;20030;-84
2022/09/13 10:41:26;;;;;;;16.20;10.80;;;;;;;28.40;48.71;100898.91;5014347;28;20033;-84
2022/09/13 10:44:03;;;;;;;16.77;11.50;;;;;;;28.23;49.21;100894.50;5014499;28;20381;-83
2022/09/13 10:46:35;;;;;;;15.65;10.55;;;;;;;28.08;50.39;100893.59;4996519;28;20029;-84
2022/09/13 10:49:01;;;;;;;13.88;9.65;;;;;;;28.36;48.65;100897.34;5014219;28;20490;-84
2022/09/13 10:51:26;;;;;;;13.60;10.00;;;;;;;28.27;48.39;100900.63;5014160;28;20034;-84
2022/09/13 10:54:09;;;;;;;16.95;10.50;;;;;;;28.39;49.69;100902.56;5014185;28;20053;-84
2022/09/13 10:56:35;;;;;;;15.27;9.15;;;;;;;28.52;47.98;100898.09;5014088;28;20052;-84
2022/09/13 10:59:33;;;;;;;14.63;9.95;;;;;;;28.39;49.39;100900.75;4996578;28;20034;-85
2022/09/13 11:02:17;;;;;;;15.05;9.40;;;;;;;28.35;48.81;100891.06;4980748;28;20048;-84
2022/09/13 11:05:05;;;;;;;13.02;9.10;;;;;;;28.33;49.33;100892.06;4996124;28;20132;-85
2022/09/13 11:08:01;;;;;;;13.85;8.30;;;;;;;28.45;49.60;100891.34;5014199;28;20088;-84
2022/09/13 11:10:50;;;;;;;12.68;8.15;;;;;;;28.37;50.07;100880.06;5014615;28;20041;-84
2022/09/13 11:13:27;;;;;;;12.90;8.73;;;;;;;28.30;49.66;100875.94;4996632;28;20026;-85
2022/09/13 11:16:07;;;;;;;11.63;8.68;;;;;;;28.28;49.86;100872.47;5013824;28;20056;-86
2022/09/13 11:18:56;;;;;;;14.20;8.98;;;;;;;28.30;49.00;100865.94;5013969;28;20029;-84
2022/09/13 11:21:33;;;;;;;14.25;9.32;;;;;;;28.30;49.53;100859.63;5013637;28;20040;-84
2022/09/13 11:24:07;;;;;;;11.20;7.32;;;;;;;28.53;48.71;100863.66;5013635;28;20030;-84
2022/09/13 11:26:45;;;;;;;13.05;8.48;;;;;;;28.72;49.11;100868.78;5014136;28;20089;-84
2022/09/13 11:29:28;;;;;;;11.10;7.25;;;;;;;28.88;48.04;100858.66;4996430;28;20038;-84
2022/09/13 11:32:22;;;;;;;11.10;7.00;;;;;;;29.06;47.83;100860.19;5014066;28;20058;-84
2022/09/13 11:35:04;;;;;;;13.30;8.85;;;;;;;29.29;46.01;100860.50;5014121;28;20033;-84
2022/09/13 11:37:32;;;;;;;12.38;7.78;;;;;;;29.18;45.71;100864.81;5014523;28;20037;-84
2022/09/13 11:40:28;;;;;;;11.23;7.70;;;;;;;29.12;47.18;100861.63;5013707;28;20092;-84